Terminal Aerodrome Forecast
Issued by NWS Lake Charles, LA

Home | Current Version | Previous Version | Text Only | Print | Product List | Glossary On
Versions: 1 2 3 4 5 6 7 8 9 10 11 12 13 14
000
FTUS44 KLCH 040549
TAFARA
TAF
KARA 040549Z 0406/0506 34009KT 3SM SHRA BR BKN010 OVC018
     FM040900 VRB05KT 4SM -SHRA BR OVC004
     FM041200 36006KT 2SM -RA BR OVC007
     FM041800 36009KT 4SM BR OVC007=

USA.gov is the U.S. government's official web portal to all federal, state and local government web resources and services.